Honokaa, Hawaii
Current Conditions -  °F | °C
As of 3:56 AM on Saturday 25 Oct 2014 (Local Time) from PHSF Reporting Station
Clear Clear  
Wind Chill: 46°   Ceiling: Unl
Heat Index: 48°   Visibility: 10mi
Dew Point: 38°   Wind: 5mph
Humidity: 69%   Direction: 130°SE
Pressure: 30.32"   Gusts: NA
Location:  20.07°N, 155.46°W
Report Text: PHSF 251356Z AUTO 13004KT 10SM CLR 09/04 A3032 RMK AO2 SLP158 T00900035 $
Loading
Personal Weather Stations






























Interactive Weather Map
Tropical Storm Tracking
New forecast layout! Learn more

10-Day Weather Forecast

Advertisements
Track Severe Weather on mobile